Details From EPPO - LAWICA
To EPWA - WARSZAWA Okecie
Flight Number -
Tags decoded
Created
Modified
Stats Distance 156 nm / 289 km
Max Altitude 0 ft / 0 m
Waypoints 4
Social Downloads 0
Likes 0
Share VATSIM

Download

Looking for another format? Having issues loading an existing format? Contact us
Advertisement - Login to hide

Notes

Requested: EPPO TENVO P150 BIMPA EPWA Unmatched points: P150

Route

EPPO TENVO BIMPA EPWA

ID Type Via Altitude Latitude Longitude Leg Dist Tot Dist Heading (true) Name
O EPPO APT - 0 ft / 0 m 52.42157˚ 16.82355˚ - 0 nm - LAWICA
TENVO FIX - 0 ft / 0 m 52.23167˚ 17.77417˚ 36 nm 36 nm 108° / 108° -
BIMPA FIX - 0 ft / 0 m 52.37439˚ 19.77472˚ 73 nm 110 nm 83° / 84° -
O EPWA APT - 0 ft / 0 m 52.16509˚ 20.96692˚ 45 nm 156 nm 106° / 106° WARSZAWA Okecie

Altitude Profile

Advertisement - Login to hide

EPPO

Details ICAO EPPO (POZ)
Name LAWICA
Region Poland
Timezone Europe/Warsaw (UTC+1.0)
Stats Elevation 308 ft / 94 m (AMSL)
Location 52.421566° 16.823549°
Runways 1
Magnetic Variation 4.734° E

METAR

EPPO 111500Z 13008KT CAVOK 05/03 Q0989 R10/29//95

Decode

TAF

TAF EPPO 111130Z 1112/1212 18010KT 9999 BKN040 PROB40 1113/1118 12007KT TEMPO 1206/1212 18020G35KT

Decode

Departure Runways

ID Width Length Bearing (true) Bearing (mag) Surface Threshold Offset Overrun Length
11 164 ft / 50 m 8,153 ft / 2,485 m 107.57° 102.84° Asphalt 0 ft / 0 m 0 ft / 0 m
29 164 ft / 50 m 8,153 ft / 2,485 m 287.59° 282.86° Asphalt 0 ft / 0 m 0 ft / 0 m

EPWA

Details ICAO EPWA (WAW)
Name WARSZAWA Okecie
Region Poland
Timezone Europe/Warsaw (UTC+1.0)
Stats Elevation 328 ft / 100 m (AMSL)
Location 52.165091° 20.966923°
Runways 2
Magnetic Variation 5.800° E

METAR

EPWA 111500Z 14010KT CAVOK 04/01 Q0995 R11/2///95 NOSIG

Decode

TAF

TAF EPWA 111130Z 1112/1212 16010KT 9999 BKN030 PROB40 1118/1203 BKN009 BECMG 1208/1210 23012KT TEMPO 1210/1212 25015G28KT

Decode

Destination Runways

ID Width Length Bearing (true) Bearing (mag) Surface Threshold Offset Overrun Length
11 164 ft / 50 m 9,163 ft / 2,793 m 114.64° 108.84° Asphalt 0 ft / 0 m 476 ft / 145 m
15 197 ft / 60 m 12,112 ft / 3,692 m 151.85° 146.05° Asphalt 0 ft / 0 m 0 ft / 0 m
29 164 ft / 50 m 9,163 ft / 2,793 m 294.67° 288.87° Asphalt 1,608 ft / 490 m 0 ft / 0 m
33 197 ft / 60 m 12,112 ft / 3,692 m 331.87° 326.07° Asphalt 0 ft / 0 m 0 ft / 0 m

Approach Navaids

Runway Type Ident Frequency Range Bearing (true) Bearing (mag) Slope Elevation
11 Localiser WAS 109.90 MHz 18 nm / 33 km 114.53° 108.73° - 328 ft / 100 m (AMSL)
11 Glidescope WAS 109.90 MHz 10 nm / 19 km 114.66° 108.86° 3.00° 328 ft / 100 m (AMSL)
11 DME WAS 109.90 MHz 18 nm / 33 km - - - 394 ft / 120 m (AMSL)
33 Localiser WA 110.30 MHz 18 nm / 33 km 331.88° 326.08° - 328 ft / 100 m (AMSL)
33 Glidescope WA 110.30 MHz 10 nm / 19 km 331.86° 326.06° 3.00° 328 ft / 100 m (AMSL)
33 DME WA 110.30 MHz 18 nm / 33 km - - - 394 ft / 120 m (AMSL)

Popular Alternatives